sensor_id;sensor_type;location;lat;lon;timestamp;temperature;humidity
53268;DHT22;39156;51.176;6.738;2023-04-07T00:01:07;8.10;80.30
53268;DHT22;39156;51.176;6.738;2023-04-07T00:03:33;8.20;80.50
53268;DHT22;39156;51.176;6.738;2023-04-07T00:05:58;8.10;80.40
53268;DHT22;39156;51.176;6.738;2023-04-07T00:08:24;8.30;80.40
53268;DHT22;39156;51.176;6.738;2023-04-07T00:10:50;8.20;81.00
53268;DHT22;39156;51.176;6.738;2023-04-07T00:13:16;8.20;80.40
53268;DHT22;39156;51.176;6.738;2023-04-07T00:15:41;8.20;80.50
53268;DHT22;39156;51.176;6.738;2023-04-07T00:18:07;8.30;80.60
53268;DHT22;39156;51.176;6.738;2023-04-07T00:20:33;8.20;80.50
53268;DHT22;39156;51.176;6.738;2023-04-07T00:22:58;8.20;80.50
53268;DHT22;39156;51.176;6.738;2023-04-07T00:25:24;8.20;80.60
53268;DHT22;39156;51.176;6.738;2023-04-07T00:27:50;8.20;80.80
53268;DHT22;39156;51.176;6.738;2023-04-07T00:30:16;8.30;80.80
53268;DHT22;39156;51.176;6.738;2023-04-07T00:32:42;8.30;80.80
53268;DHT22;39156;51.176;6.738;2023-04-07T00:35:08;8.40;81.00
53268;DHT22;39156;51.176;6.738;2023-04-07T00:37:34;8.40;80.90
53268;DHT22;39156;51.176;6.738;2023-04-07T00:39:59;8.40;80.80
53268;DHT22;39156;51.176;6.738;2023-04-07T00:42:28;8.50;80.70
53268;DHT22;39156;51.176;6.738;2023-04-07T00:44:54;8.50;80.80
53268;DHT22;39156;51.176;6.738;2023-04-07T00:47:20;8.60;80.70
53268;DHT22;39156;51.176;6.738;2023-04-07T00:49:45;8.50;80.50
53268;DHT22;39156;51.176;6.738;2023-04-07T00:52:11;8.50;80.70
53268;DHT22;39156;51.176;6.738;2023-04-07T00:54:38;8.80;80.90
53268;DHT22;39156;51.176;6.738;2023-04-07T00:57:05;8.60;80.80
53268;DHT22;39156;51.176;6.738;2023-04-07T00:59:31;8.60;80.90
53268;DHT22;39156;51.176;6.738;2023-04-07T01:02:15;8.60;80.70
53268;DHT22;39156;51.176;6.738;2023-04-07T01:04:55;8.70;81.20
53268;DHT22;39156;51.176;6.738;2023-04-07T01:07:34;8.70;80.70
53268;DHT22;39156;51.176;6.738;2023-04-07T01:10:27;8.70;80.80
53268;DHT22;39156;51.176;6.738;2023-04-07T01:13:27;8.70;80.80
53268;DHT22;39156;51.176;6.738;2023-04-07T01:15:58;8.70;81.20
53268;DHT22;39156;51.176;6.738;2023-04-07T01:18:31;8.80;80.70
53268;DHT22;39156;51.176;6.738;2023-04-07T01:21:03;8.80;80.90
53268;DHT22;39156;51.176;6.738;2023-04-07T01:23:51;8.80;80.80
53268;DHT22;39156;51.176;6.738;2023-04-07T01:26:31;8.80;81.20
53268;DHT22;39156;51.176;6.738;2023-04-07T01:31:54;8.80;81.60
53268;DHT22;39156;51.176;6.738;2023-04-07T01:34:21;8.90;81.10
53268;DHT22;39156;51.176;6.738;2023-04-07T01:36:49;8.70;81.20
53268;DHT22;39156;51.176;6.738;2023-04-07T01:39:15;8.90;81.40
53268;DHT22;39156;51.176;6.738;2023-04-07T01:41:43;8.90;81.60
53268;DHT22;39156;51.176;6.738;2023-04-07T01:44:09;8.90;81.20
53268;DHT22;39156;51.176;6.738;2023-04-07T01:46:35;8.90;81.40
53268;DHT22;39156;51.176;6.738;2023-04-07T01:49:03;8.90;81.50
53268;DHT22;39156;51.176;6.738;2023-04-07T01:51:29;8.80;81.60
53268;DHT22;39156;51.176;6.738;2023-04-07T01:53:57;8.90;81.70
53268;DHT22;39156;51.176;6.738;2023-04-07T01:56:24;8.90;81.80
53268;DHT22;39156;51.176;6.738;2023-04-07T01:58:49;8.90;81.90
53268;DHT22;39156;51.176;6.738;2023-04-07T02:01:15;8.90;82.00
53268;DHT22;39156;51.176;6.738;2023-04-07T02:03:54;8.80;81.90
53268;DHT22;39156;51.176;6.738;2023-04-07T02:06:29;8.80;82.30
53268;DHT22;39156;51.176;6.738;2023-04-07T02:09:01;8.80;82.30
53268;DHT22;39156;51.176;6.738;2023-04-07T02:11:31;8.80;82.40
53268;DHT22;39156;51.176;6.738;2023-04-07T02:14:00;8.80;82.30
53268;DHT22;39156;51.176;6.738;2023-04-07T02:16:29;8.80;82.40
53268;DHT22;39156;51.176;6.738;2023-04-07T02:18:56;8.80;82.40
53268;DHT22;39156;51.176;6.738;2023-04-07T02:21:23;8.80;82.40
53268;DHT22;39156;51.176;6.738;2023-04-07T02:23:50;8.80;82.40
53268;DHT22;39156;51.176;6.738;2023-04-07T02:26:16;8.70;82.40
53268;DHT22;39156;51.176;6.738;2023-04-07T02:28:42;8.90;82.60
53268;DHT22;39156;51.176;6.738;2023-04-07T02:31:07;8.80;82.50
53268;DHT22;39156;51.176;6.738;2023-04-07T02:33:33;8.70;82.50
53268;DHT22;39156;51.176;6.738;2023-04-07T02:35:59;8.80;82.60
53268;DHT22;39156;51.176;6.738;2023-04-07T02:38:24;8.80;82.70
53268;DHT22;39156;51.176;6.738;2023-04-07T02:40:50;8.80;82.70
53268;DHT22;39156;51.176;6.738;2023-04-07T02:43:17;8.80;82.70
53268;DHT22;39156;51.176;6.738;2023-04-07T02:45:45;8.80;82.60
53268;DHT22;39156;51.176;6.738;2023-04-07T02:48:10;8.80;82.50
53268;DHT22;39156;51.176;6.738;2023-04-07T02:50:36;8.90;82.60
53268;DHT22;39156;51.176;6.738;2023-04-07T02:53:02;8.80;82.60
53268;DHT22;39156;51.176;6.738;2023-04-07T02:55:27;8.80;82.50
53268;DHT22;39156;51.176;6.738;2023-04-07T02:57:53;8.80;82.50
53268;DHT22;39156;51.176;6.738;2023-04-07T03:00:19;8.80;82.70
53268;DHT22;39156;51.176;6.738;2023-04-07T03:02:45;8.80;82.80
53268;DHT22;39156;51.176;6.738;2023-04-07T03:05:11;8.90;82.80
53268;DHT22;39156;51.176;6.738;2023-04-07T03:07:36;8.80;82.80
53268;DHT22;39156;51.176;6.738;2023-04-07T03:10:02;8.80;82.80
53268;DHT22;39156;51.176;6.738;2023-04-07T03:12:28;8.90;82.70
53268;DHT22;39156;51.176;6.738;2023-04-07T03:14:53;8.90;82.60
53268;DHT22;39156;51.176;6.738;2023-04-07T03:17:19;8.90;82.60
53268;DHT22;39156;51.176;6.738;2023-04-07T03:19:45;8.90;82.40
53268;DHT22;39156;51.176;6.738;2023-04-07T03:22:11;8.80;82.40
53268;DHT22;39156;51.176;6.738;2023-04-07T03:24:37;8.90;82.50
53268;DHT22;39156;51.176;6.738;2023-04-07T03:27:04;8.90;82.40
53268;DHT22;39156;51.176;6.738;2023-04-07T03:29:29;8.90;82.20
53268;DHT22;39156;51.176;6.738;2023-04-07T03:31:55;8.80;81.90
53268;DHT22;39156;51.176;6.738;2023-04-07T03:34:21;8.90;81.80
53268;DHT22;39156;51.176;6.738;2023-04-07T03:36:46;8.80;81.80
53268;DHT22;39156;51.176;6.738;2023-04-07T03:39:12;8.80;81.60
53268;DHT22;39156;51.176;6.738;2023-04-07T03:41:38;8.80;81.70
53268;DHT22;39156;51.176;6.738;2023-04-07T03:44:03;8.90;81.80
53268;DHT22;39156;51.176;6.738;2023-04-07T03:46:29;8.80;81.80
53268;DHT22;39156;51.176;6.738;2023-04-07T03:48:55;8.80;81.70
53268;DHT22;39156;51.176;6.738;2023-04-07T03:51:21;8.80;81.70
53268;DHT22;39156;51.176;6.738;2023-04-07T03:53:46;8.80;81.60
53268;DHT22;39156;51.176;6.738;2023-04-07T03:56:12;8.90;81.70
53268;DHT22;39156;51.176;6.738;2023-04-07T03:58:38;8.80;81.60
53268;DHT22;39156;51.176;6.738;2023-04-07T04:01:07;8.80;81.60
53268;DHT22;39156;51.176;6.738;2023-04-07T04:03:33;8.80;81.50
53268;DHT22;39156;51.176;6.738;2023-04-07T04:05:59;8.80;81.50
53268;DHT22;39156;51.176;6.738;2023-04-07T04:08:25;8.80;82.20
53268;DHT22;39156;51.176;6.738;2023-04-07T04:10:51;8.70;81.60
53268;DHT22;39156;51.176;6.738;2023-04-07T04:13:17;8.80;81.70
53268;DHT22;39156;51.176;6.738;2023-04-07T04:15:42;8.70;81.60
53268;DHT22;39156;51.176;6.738;2023-04-07T04:18:08;8.70;81.40
53268;DHT22;39156;51.176;6.738;2023-04-07T04:20:34;8.70;81.40
53268;DHT22;39156;51.176;6.738;2023-04-07T04:23:00;8.70;81.50
53268;DHT22;39156;51.176;6.738;2023-04-07T04:25:25;8.70;81.50
53268;DHT22;39156;51.176;6.738;2023-04-07T04:27:51;8.70;81.50
53268;DHT22;39156;51.176;6.738;2023-04-07T04:30:17;8.70;81.50
53268;DHT22;39156;51.176;6.738;2023-04-07T04:32:42;8.60;81.40
53268;DHT22;39156;51.176;6.738;2023-04-07T04:35:08;8.70;81.40
53268;DHT22;39156;51.176;6.738;2023-04-07T04:37:34;8.60;81.40
53268;DHT22;39156;51.176;6.738;2023-04-07T04:40:00;8.60;81.40
53268;DHT22;39156;51.176;6.738;2023-04-07T04:42:26;8.60;81.40
53268;DHT22;39156;51.176;6.738;2023-04-07T04:44:52;8.70;81.50
53268;DHT22;39156;51.176;6.738;2023-04-07T04:47:18;8.60;81.40
53268;DHT22;39156;51.176;6.738;2023-04-07T04:49:43;8.70;81.40
53268;DHT22;39156;51.176;6.738;2023-04-07T04:52:09;8.60;82.00
53268;DHT22;39156;51.176;6.738;2023-04-07T04:54:35;8.60;81.30
53268;DHT22;39156;51.176;6.738;2023-04-07T04:57:01;8.60;81.30
53268;DHT22;39156;51.176;6.738;2023-04-07T04:59:26;8.60;81.40
53268;DHT22;39156;51.176;6.738;2023-04-07T05:01:52;8.60;81.40
53268;DHT22;39156;51.176;6.738;2023-04-07T05:04:18;8.50;81.30
53268;DHT22;39156;51.176;6.738;2023-04-07T05:06:43;8.60;81.30
53268;DHT22;39156;51.176;6.738;2023-04-07T05:09:09;8.60;81.50
53268;DHT22;39156;51.176;6.738;2023-04-07T05:11:35;8.50;81.40
53268;DHT22;39156;51.176;6.738;2023-04-07T05:14:00;8.50;81.40
53268;DHT22;39156;51.176;6.738;2023-04-07T05:16:26;8.50;81.30
53268;DHT22;39156;51.176;6.738;2023-04-07T05:18:52;8.50;81.40
53268;DHT22;39156;51.176;6.738;2023-04-07T05:21:18;8.50;81.30
53268;DHT22;39156;51.176;6.738;2023-04-07T05:23:46;8.50;81.30
53268;DHT22;39156;51.176;6.738;2023-04-07T05:26:12;8.40;81.20
53268;DHT22;39156;51.176;6.738;2023-04-07T05:28:37;8.50;81.30
53268;DHT22;39156;51.176;6.738;2023-04-07T05:31:03;8.50;81.20
53268;DHT22;39156;51.176;6.738;2023-04-07T05:33:29;8.40;81.20
53268;DHT22;39156;51.176;6.738;2023-04-07T05:35:54;8.40;81.30
53268;DHT22;39156;51.176;6.738;2023-04-07T05:38:20;8.60;81.30
53268;DHT22;39156;51.176;6.738;2023-04-07T05:40:46;8.40;81.10
53268;DHT22;39156;51.176;6.738;2023-04-07T05:43:11;8.50;81.10
53268;DHT22;39156;51.176;6.738;2023-04-07T05:45:37;8.50;81.00
53268;DHT22;39156;51.176;6.738;2023-04-07T05:48:03;8.50;81.10
53268;DHT22;39156;51.176;6.738;2023-04-07T05:50:28;8.50;81.00
53268;DHT22;39156;51.176;6.738;2023-04-07T05:52:54;8.60;81.20
53268;DHT22;39156;51.176;6.738;2023-04-07T05:55:20;8.50;81.10
53268;DHT22;39156;51.176;6.738;2023-04-07T05:57:46;8.50;81.10
53268;DHT22;39156;51.176;6.738;2023-04-07T06:00:12;8.50;81.20
53268;DHT22;39156;51.176;6.738;2023-04-07T06:02:38;8.50;81.20
53268;DHT22;39156;51.176;6.738;2023-04-07T06:05:05;8.50;81.20
53268;DHT22;39156;51.176;6.738;2023-04-07T06:07:31;8.40;81.30
53268;DHT22;39156;51.176;6.738;2023-04-07T06:09:57;8.50;81.50
53268;DHT22;39156;51.176;6.738;2023-04-07T06:12:22;8.50;81.40
53268;DHT22;39156;51.176;6.738;2023-04-07T06:14:55;8.40;81.50
53268;DHT22;39156;51.176;6.738;2023-04-07T06:17:21;8.50;81.90
53268;DHT22;39156;51.176;6.738;2023-04-07T06:19:47;8.50;81.70
53268;DHT22;39156;51.176;6.738;2023-04-07T06:22:13;8.40;81.70
53268;DHT22;39156;51.176;6.738;2023-04-07T06:24:39;8.50;81.90
53268;DHT22;39156;51.176;6.738;2023-04-07T06:27:04;8.50;81.80
53268;DHT22;39156;51.176;6.738;2023-04-07T06:29:32;8.50;81.80
53268;DHT22;39156;51.176;6.738;2023-04-07T06:31:58;8.50;82.00
53268;DHT22;39156;51.176;6.738;2023-04-07T06:34:24;8.50;81.80
53268;DHT22;39156;51.176;6.738;2023-04-07T06:36:50;8.50;81.80
53268;DHT22;39156;51.176;6.738;2023-04-07T06:39:15;8.60;81.80
53268;DHT22;39156;51.176;6.738;2023-04-07T06:41:41;8.40;81.70
53268;DHT22;39156;51.176;6.738;2023-04-07T06:44:09;8.50;81.70
53268;DHT22;39156;51.176;6.738;2023-04-07T06:46:38;8.40;81.70
53268;DHT22;39156;51.176;6.738;2023-04-07T06:49:04;8.50;81.80
53268;DHT22;39156;51.176;6.738;2023-04-07T06:51:29;8.40;81.70
53268;DHT22;39156;51.176;6.738;2023-04-07T06:53:56;8.50;81.90
53268;DHT22;39156;51.176;6.738;2023-04-07T06:56:22;8.50;82.00
53268;DHT22;39156;51.176;6.738;2023-04-07T06:58:48;8.50;81.90
53268;DHT22;39156;51.176;6.738;2023-04-07T07:01:15;8.60;81.90
53268;DHT22;39156;51.176;6.738;2023-04-07T07:03:41;8.60;81.80
53268;DHT22;39156;51.176;6.738;2023-04-07T07:06:06;8.60;81.60
53268;DHT22;39156;51.176;6.738;2023-04-07T07:08:32;8.80;81.80
53268;DHT22;39156;51.176;6.738;2023-04-07T07:10:58;8.70;81.60
53268;DHT22;39156;51.176;6.738;2023-04-07T07:13:25;8.80;81.60
53268;DHT22;39156;51.176;6.738;2023-04-07T07:15:52;8.80;81.60
53268;DHT22;39156;51.176;6.738;2023-04-07T07:18:18;8.80;81.60
53268;DHT22;39156;51.176;6.738;2023-04-07T07:20:44;8.80;81.60
53268;DHT22;39156;51.176;6.738;2023-04-07T07:23:10;8.80;81.50
53268;DHT22;39156;51.176;6.738;2023-04-07T07:25:36;8.80;81.50
53268;DHT22;39156;51.176;6.738;2023-04-07T07:28:01;8.80;81.40
53268;DHT22;39156;51.176;6.738;2023-04-07T07:30:27;8.90;81.40
53268;DHT22;39156;51.176;6.738;2023-04-07T07:32:53;8.90;81.40
53268;DHT22;39156;51.176;6.738;2023-04-07T07:35:20;8.90;81.40
53268;DHT22;39156;51.176;6.738;2023-04-07T07:37:46;8.90;81.30
53268;DHT22;39156;51.176;6.738;2023-04-07T07:40:13;8.90;81.20
53268;DHT22;39156;51.176;6.738;2023-04-07T07:42:39;9.00;81.20
53268;DHT22;39156;51.176;6.738;2023-04-07T07:45:05;9.00;81.40
53268;DHT22;39156;51.176;6.738;2023-04-07T07:47:31;8.90;81.50
53268;DHT22;39156;51.176;6.738;2023-04-07T07:49:57;9.00;81.50
53268;DHT22;39156;51.176;6.738;2023-04-07T07:52:23;8.90;81.30
53268;DHT22;39156;51.176;6.738;2023-04-07T07:54:50;9.00;81.30
53268;DHT22;39156;51.176;6.738;2023-04-07T07:57:16;9.00;81.40
53268;DHT22;39156;51.176;6.738;2023-04-07T07:59:42;9.00;81.40
53268;DHT22;39156;51.176;6.738;2023-04-07T08:02:08;9.10;81.10
53268;DHT22;39156;51.176;6.738;2023-04-07T08:04:35;9.00;81.10
53268;DHT22;39156;51.176;6.738;2023-04-07T08:07:02;9.10;81.10
53268;DHT22;39156;51.176;6.738;2023-04-07T08:09:28;9.20;81.20
53268;DHT22;39156;51.176;6.738;2023-04-07T08:11:54;9.10;81.10
53268;DHT22;39156;51.176;6.738;2023-04-07T08:14:20;9.20;81.20
53268;DHT22;39156;51.176;6.738;2023-04-07T08:16:46;9.30;81.10
53268;DHT22;39156;51.176;6.738;2023-04-07T08:19:12;9.30;81.10
53268;DHT22;39156;51.176;6.738;2023-04-07T08:21:38;9.30;81.10
53268;DHT22;39156;51.176;6.738;2023-04-07T08:24:04;9.30;81.10
53268;DHT22;39156;51.176;6.738;2023-04-07T08:26:31;9.30;81.00
53268;DHT22;39156;51.176;6.738;2023-04-07T08:28:57;9.30;80.80
53268;DHT22;39156;51.176;6.738;2023-04-07T08:31:23;9.40;80.70
53268;DHT22;39156;51.176;6.738;2023-04-07T08:33:49;9.50;80.60
53268;DHT22;39156;51.176;6.738;2023-04-07T08:36:19;9.50;81.10
53268;DHT22;39156;51.176;6.738;2023-04-07T08:38:45;9.60;80.50
53268;DHT22;39156;51.176;6.738;2023-04-07T08:41:12;9.60;80.50
53268;DHT22;39156;51.176;6.738;2023-04-07T08:43:40;9.60;80.20
53268;DHT22;39156;51.176;6.738;2023-04-07T08:46:08;9.70;80.50
53268;DHT22;39156;51.176;6.738;2023-04-07T08:48:37;9.70;80.20
53268;DHT22;39156;51.176;6.738;2023-04-07T08:51:07;9.70;80.00
53268;DHT22;39156;51.176;6.738;2023-04-07T08:53:42;9.80;80.10
53268;DHT22;39156;51.176;6.738;2023-04-07T08:56:16;9.80;80.20
53268;DHT22;39156;51.176;6.738;2023-04-07T08:58:43;9.80;80.10
53268;DHT22;39156;51.176;6.738;2023-04-07T09:01:09;9.90;80.10
53268;DHT22;39156;51.176;6.738;2023-04-07T09:03:37;9.90;80.10
53268;DHT22;39156;51.176;6.738;2023-04-07T09:06:03;9.90;80.10
53268;DHT22;39156;51.176;6.738;2023-04-07T09:08:29;9.90;80.00
53268;DHT22;39156;51.176;6.738;2023-04-07T09:10:55;9.80;79.60
53268;DHT22;39156;51.176;6.738;2023-04-07T09:13:23;9.90;80.00
53268;DHT22;39156;51.176;6.738;2023-04-07T09:15:49;9.90;80.20
53268;DHT22;39156;51.176;6.738;2023-04-07T09:18:15;10.00;80.10
53268;DHT22;39156;51.176;6.738;2023-04-07T09:21:02;10.00;79.80
53268;DHT22;39156;51.176;6.738;2023-04-07T09:23:34;10.10;79.80
53268;DHT22;39156;51.176;6.738;2023-04-07T09:28:48;10.10;79.30
53268;DHT22;39156;51.176;6.738;2023-04-07T09:31:16;10.20;79.00
53268;DHT22;39156;51.176;6.738;2023-04-07T09:33:43;10.10;79.00
53268;DHT22;39156;51.176;6.738;2023-04-07T09:36:09;10.10;78.70
53268;DHT22;39156;51.176;6.738;2023-04-07T09:38:39;10.20;78.70
53268;DHT22;39156;51.176;6.738;2023-04-07T09:41:11;10.20;78.90
53268;DHT22;39156;51.176;6.738;2023-04-07T09:43:40;10.20;78.30
53268;DHT22;39156;51.176;6.738;2023-04-07T09:46:13;10.20;78.10
53268;DHT22;39156;51.176;6.738;2023-04-07T09:48:42;10.30;77.90
53268;DHT22;39156;51.176;6.738;2023-04-07T09:51:12;10.30;78.10
53268;DHT22;39156;51.176;6.738;2023-04-07T09:53:50;10.40;78.50
53268;DHT22;39156;51.176;6.738;2023-04-07T09:56:20;10.40;77.80
53268;DHT22;39156;51.176;6.738;2023-04-07T09:58:49;10.50;77.60
53268;DHT22;39156;51.176;6.738;2023-04-07T10:01:19;10.50;77.10
53268;DHT22;39156;51.176;6.738;2023-04-07T10:03:46;10.60;76.90
53268;DHT22;39156;51.176;6.738;2023-04-07T10:06:13;10.70;76.90
53268;DHT22;39156;51.176;6.738;2023-04-07T10:08:41;10.60;76.60
53268;DHT22;39156;51.176;6.738;2023-04-07T10:11:08;10.70;76.10
53268;DHT22;39156;51.176;6.738;2023-04-07T10:13:36;10.70;76.10
53268;DHT22;39156;51.176;6.738;2023-04-07T10:16:04;10.80;76.10
53268;DHT22;39156;51.176;6.738;2023-04-07T10:18:33;10.80;75.80
53268;DHT22;39156;51.176;6.738;2023-04-07T10:21:02;10.80;75.60
53268;DHT22;39156;51.176;6.738;2023-04-07T10:23:36;10.80;75.70
53268;DHT22;39156;51.176;6.738;2023-04-07T10:26:09;10.80;75.30
53268;DHT22;39156;51.176;6.738;2023-04-07T10:28:37;10.80;75.20
53268;DHT22;39156;51.176;6.738;2023-04-07T10:31:06;10.90;74.90
53268;DHT22;39156;51.176;6.738;2023-04-07T10:33:52;10.90;74.60
53268;DHT22;39156;51.176;6.738;2023-04-07T10:36:19;10.80;74.70
53268;DHT22;39156;51.176;6.738;2023-04-07T10:41:37;10.80;74.60
53268;DHT22;39156;51.176;6.738;2023-04-07T10:44:06;10.80;74.20
53268;DHT22;39156;51.176;6.738;2023-04-07T10:49:11;10.70;74.70
53268;DHT22;39156;51.176;6.738;2023-04-07T10:51:38;10.60;74.70
53268;DHT22;39156;51.176;6.738;2023-04-07T10:54:21;10.60;74.70
53268;DHT22;39156;51.176;6.738;2023-04-07T10:59:32;10.60;74.90
53268;DHT22;39156;51.176;6.738;2023-04-07T11:04:46;10.50;75.00
53268;DHT22;39156;51.176;6.738;2023-04-07T11:07:13;10.50;75.20
53268;DHT22;39156;51.176;6.738;2023-04-07T11:09:40;10.50;74.90
53268;DHT22;39156;51.176;6.738;2023-04-07T11:12:07;10.60;75.00
53268;DHT22;39156;51.176;6.738;2023-04-07T11:14:33;10.60;75.00
53268;DHT22;39156;51.176;6.738;2023-04-07T11:17:02;10.60;75.00
53268;DHT22;39156;51.176;6.738;2023-04-07T11:19:28;10.70;75.20
53268;DHT22;39156;51.176;6.738;2023-04-07T11:22:15;10.70;75.20
53268;DHT22;39156;51.176;6.738;2023-04-07T11:24:41;10.80;75.20
53268;DHT22;39156;51.176;6.738;2023-04-07T11:27:14;10.90;75.30
53268;DHT22;39156;51.176;6.738;2023-04-07T11:29:40;11.00;75.00
53268;DHT22;39156;51.176;6.738;2023-04-07T11:32:06;11.10;75.00
53268;DHT22;39156;51.176;6.738;2023-04-07T11:34:34;11.10;74.20
53268;DHT22;39156;51.176;6.738;2023-04-07T11:37:20;11.10;73.60
53268;DHT22;39156;51.176;6.738;2023-04-07T11:39:56;11.10;73.60
53268;DHT22;39156;51.176;6.738;2023-04-07T11:42:38;11.10;73.40
53268;DHT22;39156;51.176;6.738;2023-04-07T11:45:25;11.10;73.90
53268;DHT22;39156;51.176;6.738;2023-04-07T11:47:50;11.00;73.80
53268;DHT22;39156;51.176;6.738;2023-04-07T11:50:16;11.10;73.40
53268;DHT22;39156;51.176;6.738;2023-04-07T11:52:47;11.10;73.70
53268;DHT22;39156;51.176;6.738;2023-04-07T11:55:22;11.10;73.50
53268;DHT22;39156;51.176;6.738;2023-04-07T11:57:51;11.10;73.80
53268;DHT22;39156;51.176;6.738;2023-04-07T12:00:18;11.20;73.80
53268;DHT22;39156;51.176;6.738;2023-04-07T12:02:45;11.20;73.30
53268;DHT22;39156;51.176;6.738;2023-04-07T12:05:11;11.10;72.50
53268;DHT22;39156;51.176;6.738;2023-04-07T12:07:38;11.10;72.30
53268;DHT22;39156;51.176;6.738;2023-04-07T12:10:22;11.00;72.50
53268;DHT22;39156;51.176;6.738;2023-04-07T12:12:52;10.90;72.70
53268;DHT22;39156;51.176;6.738;2023-04-07T12:15:17;10.80;72.70
53268;DHT22;39156;51.176;6.738;2023-04-07T12:17:45;10.70;73.10
53268;DHT22;39156;51.176;6.738;2023-04-07T12:20:12;10.80;73.40
53268;DHT22;39156;51.176;6.738;2023-04-07T12:22:39;10.70;73.80
53268;DHT22;39156;51.176;6.738;2023-04-07T12:25:06;10.80;73.90
53268;DHT22;39156;51.176;6.738;2023-04-07T12:27:32;10.70;74.40
53268;DHT22;39156;51.176;6.738;2023-04-07T12:29:58;10.80;74.80
53268;DHT22;39156;51.176;6.738;2023-04-07T12:32:23;10.80;74.80
53268;DHT22;39156;51.176;6.738;2023-04-07T12:34:50;10.80;74.70
53268;DHT22;39156;51.176;6.738;2023-04-07T12:37:15;10.90;74.50
53268;DHT22;39156;51.176;6.738;2023-04-07T12:39:41;10.90;74.20
53268;DHT22;39156;51.176;6.738;2023-04-07T12:42:07;11.00;74.60
53268;DHT22;39156;51.176;6.738;2023-04-07T12:44:36;11.00;74.20
53268;DHT22;39156;51.176;6.738;2023-04-07T12:47:02;11.10;74.60
53268;DHT22;39156;51.176;6.738;2023-04-07T12:49:28;11.20;74.30
53268;DHT22;39156;51.176;6.738;2023-04-07T12:51:54;11.30;73.90
53268;DHT22;39156;51.176;6.738;2023-04-07T12:54:20;11.30;74.00
53268;DHT22;39156;51.176;6.738;2023-04-07T12:56:46;11.50;73.70
53268;DHT22;39156;51.176;6.738;2023-04-07T12:59:12;11.60;73.40
53268;DHT22;39156;51.176;6.738;2023-04-07T13:01:38;11.70;73.20
53268;DHT22;39156;51.176;6.738;2023-04-07T13:04:04;11.80;72.80
53268;DHT22;39156;51.176;6.738;2023-04-07T13:06:30;11.90;72.50
53268;DHT22;39156;51.176;6.738;2023-04-07T13:08:56;11.90;72.00
53268;DHT22;39156;51.176;6.738;2023-04-07T13:11:22;11.90;71.90
53268;DHT22;39156;51.176;6.738;2023-04-07T13:13:48;11.80;71.80
53268;DHT22;39156;51.176;6.738;2023-04-07T13:16:13;11.90;71.90
53268;DHT22;39156;51.176;6.738;2023-04-07T13:18:39;11.80;71.60
53268;DHT22;39156;51.176;6.738;2023-04-07T13:21:05;11.90;71.40
53268;DHT22;39156;51.176;6.738;2023-04-07T13:23:31;11.70;71.20
53268;DHT22;39156;51.176;6.738;2023-04-07T13:25:56;11.80;71.30
53268;DHT22;39156;51.176;6.738;2023-04-07T13:28:22;11.70;71.20
53268;DHT22;39156;51.176;6.738;2023-04-07T13:30:48;11.70;70.80
53268;DHT22;39156;51.176;6.738;2023-04-07T13:33:13;11.60;70.60
53268;DHT22;39156;51.176;6.738;2023-04-07T13:35:39;11.50;70.80
53268;DHT22;39156;51.176;6.738;2023-04-07T13:38:05;11.50;70.60
53268;DHT22;39156;51.176;6.738;2023-04-07T13:40:31;11.40;70.60
53268;DHT22;39156;51.176;6.738;2023-04-07T13:42:56;11.30;70.80
53268;DHT22;39156;51.176;6.738;2023-04-07T13:45:23;11.30;71.20
53268;DHT22;39156;51.176;6.738;2023-04-07T13:47:48;11.30;71.30
53268;DHT22;39156;51.176;6.738;2023-04-07T13:50:14;11.20;71.70
53268;DHT22;39156;51.176;6.738;2023-04-07T13:52:40;11.20;72.20
53268;DHT22;39156;51.176;6.738;2023-04-07T13:55:06;11.20;72.20
53268;DHT22;39156;51.176;6.738;2023-04-07T13:57:32;11.20;72.50
53268;DHT22;39156;51.176;6.738;2023-04-07T13:59:58;11.30;72.60
53268;DHT22;39156;51.176;6.738;2023-04-07T14:02:25;11.20;72.00
53268;DHT22;39156;51.176;6.738;2023-04-07T14:04:53;11.20;71.60
53268;DHT22;39156;51.176;6.738;2023-04-07T14:07:19;11.20;71.40
53268;DHT22;39156;51.176;6.738;2023-04-07T14:09:47;11.20;71.20
53268;DHT22;39156;51.176;6.738;2023-04-07T14:12:13;11.20;71.40
53268;DHT22;39156;51.176;6.738;2023-04-07T14:14:39;11.10;71.40
53268;DHT22;39156;51.176;6.738;2023-04-07T14:17:05;11.10;71.70
53268;DHT22;39156;51.176;6.738;2023-04-07T14:19:31;11.00;71.80
53268;DHT22;39156;51.176;6.738;2023-04-07T14:21:58;10.90;71.70
53268;DHT22;39156;51.176;6.738;2023-04-07T14:24:24;10.90;72.00
53268;DHT22;39156;51.176;6.738;2023-04-07T14:26:49;10.90;72.10
53268;DHT22;39156;51.176;6.738;2023-04-07T14:29:15;11.00;72.50
53268;DHT22;39156;51.176;6.738;2023-04-07T14:31:42;11.00;72.80
53268;DHT22;39156;51.176;6.738;2023-04-07T14:34:09;10.90;72.80
53268;DHT22;39156;51.176;6.738;2023-04-07T14:36:35;11.00;73.20
53268;DHT22;39156;51.176;6.738;2023-04-07T14:39:00;11.10;73.40
53268;DHT22;39156;51.176;6.738;2023-04-07T14:41:26;11.20;73.70
53268;DHT22;39156;51.176;6.738;2023-04-07T14:43:52;11.20;73.70
53268;DHT22;39156;51.176;6.738;2023-04-07T14:46:24;11.20;73.20
53268;DHT22;39156;51.176;6.738;2023-04-07T14:48:51;11.20;73.50
53268;DHT22;39156;51.176;6.738;2023-04-07T14:51:18;11.20;73.80
53268;DHT22;39156;51.176;6.738;2023-04-07T14:53:44;11.30;73.60
53268;DHT22;39156;51.176;6.738;2023-04-07T14:56:17;11.30;73.20
53268;DHT22;39156;51.176;6.738;2023-04-07T14:58:43;11.30;73.10
53268;DHT22;39156;51.176;6.738;2023-04-07T15:01:09;11.30;73.10
53268;DHT22;39156;51.176;6.738;2023-04-07T15:03:34;11.30;72.90
53268;DHT22;39156;51.176;6.738;2023-04-07T15:06:01;11.20;73.30
53268;DHT22;39156;51.176;6.738;2023-04-07T15:08:30;11.30;73.30
53268;DHT22;39156;51.176;6.738;2023-04-07T15:10:56;11.30;73.80
53268;DHT22;39156;51.176;6.738;2023-04-07T15:13:21;11.30;74.00
53268;DHT22;39156;51.176;6.738;2023-04-07T15:15:48;11.40;74.40
53268;DHT22;39156;51.176;6.738;2023-04-07T15:18:14;11.40;73.60
53268;DHT22;39156;51.176;6.738;2023-04-07T15:20:39;11.40;73.40
53268;DHT22;39156;51.176;6.738;2023-04-07T15:23:05;11.50;73.20
53268;DHT22;39156;51.176;6.738;2023-04-07T15:25:31;11.50;73.40
53268;DHT22;39156;51.176;6.738;2023-04-07T15:27:57;11.50;72.80
53268;DHT22;39156;51.176;6.738;2023-04-07T15:30:22;11.50;72.40
53268;DHT22;39156;51.176;6.738;2023-04-07T15:33:03;11.50;72.40
53268;DHT22;39156;51.176;6.738;2023-04-07T15:35:29;11.50;72.40
53268;DHT22;39156;51.176;6.738;2023-04-07T15:37:55;11.50;72.40
53268;DHT22;39156;51.176;6.738;2023-04-07T15:40:21;11.50;72.00
53268;DHT22;39156;51.176;6.738;2023-04-07T15:42:47;11.50;72.00
53268;DHT22;39156;51.176;6.738;2023-04-07T15:45:13;11.50;71.80
53268;DHT22;39156;51.176;6.738;2023-04-07T15:47:38;11.50;72.00
53268;DHT22;39156;51.176;6.738;2023-04-07T15:50:04;11.50;72.00
53268;DHT22;39156;51.176;6.738;2023-04-07T15:52:31;11.40;72.10
53268;DHT22;39156;51.176;6.738;2023-04-07T15:54:56;11.40;72.10
53268;DHT22;39156;51.176;6.738;2023-04-07T15:57:22;11.20;72.50